Time;durP1;ratioP1;P1;durP2;ratioP2;P2;SDS_P1;SDS_P2;PMS_P1;PMS_P2;Temp;Humidity;BMP_temperature;BMP_pressure;BME280_temperature;BME280_humidity;BME280_pressure;Samples;Min_cycle;Max_cycle;Signal;HPM_P1;HPM_P2
2022/10/14 00:02:07;;;;;;;10.18;7.25;;;;;;;22.80;56.55;100722.50;20667457;28;20412;-71
2022/10/14 00:12:07;;;;;;;8.88;7.07;;;;;;;22.79;56.47;100719.97;20670576;28;20054;-70
2022/10/14 00:22:08;;;;;;;9.40;6.90;;;;;;;22.78;56.16;100716.50;20670780;28;20062;-71
2022/10/14 00:32:08;;;;;;;8.82;6.93;;;;;;;22.76;56.29;100707.03;20670382;28;20049;-71
2022/10/14 00:42:13;;;;;;;11.38;7.25;;;;;;;22.75;56.29;100697.41;20660953;28;20057;-71
2022/10/14 00:52:17;;;;;;;8.18;6.60;;;;;;;22.74;56.17;100707.16;20652542;28;20070;-74
2022/10/14 01:02:18;;;;;;;8.82;6.30;;;;;;;22.72;56.00;100695.88;20661962;28;20081;-72
2022/10/14 01:12:33;;;;;;;9.65;6.38;;;;;;;22.71;56.19;100700.28;20651286;28;20419;-70
2022/10/14 01:22:37;;;;;;;9.50;6.50;;;;;;;22.69;56.21;100690.81;20654893;28;20049;-69
2022/10/14 01:32:44;;;;;;;8.10;6.40;;;;;;;22.69;56.14;100690.81;20656850;28;20405;-70
2022/10/14 01:42:46;;;;;;;7.30;6.50;;;;;;;22.69;55.97;100690.81;20657844;28;20046;-70
2022/10/14 01:52:52;;;;;;;8.32;6.25;;;;;;;22.67;56.34;100676.91;20654235;28;20065;-69
2022/10/14 02:02:52;;;;;;;7.53;6.15;;;;;;;22.65;56.31;100665.63;20650478;28;20050;-70
2022/10/14 02:13:12;;;;;;;8.60;6.63;;;;;;;22.62;56.29;100682.56;20653463;28;20099;-69
2022/10/14 02:23:17;;;;;;;8.15;6.20;;;;;;;22.60;56.27;100673.09;20652395;28;20089;-70
2022/10/14 02:33:22;;;;;;;10.38;6.65;;;;;;;22.61;55.96;100677.41;20649654;28;20100;-70
2022/10/14 02:43:22;;;;;;;7.55;5.97;;;;;;;22.59;56.51;100676.69;20650491;28;20050;-70
2022/10/14 02:53:23;;;;;;;8.52;5.97;;;;;;;22.57;56.31;100673.31;20638852;28;20128;-70
2022/10/14 03:03:23;;;;;;;7.05;5.93;;;;;;;22.58;56.31;100675.81;20638533;28;20513;-70
2022/10/14 03:13:24;;;;;;;8.27;6.35;;;;;;;22.53;56.33;100670.94;20651870;28;20146;-71
2022/10/14 03:23:24;;;;;;;7.13;6.00;;;;;;;22.51;56.41;100675.47;20661827;28;20485;-71
2022/10/14 03:33:24;;;;;;;8.32;5.88;;;;;;;22.49;56.04;100663.38;20662964;28;20069;-71
2022/10/14 03:43:25;;;;;;;6.93;6.20;;;;;;;22.50;56.36;100662.41;20661884;28;20042;-70
2022/10/14 03:53:25;;;;;;;5.85;5.25;;;;;;;22.51;56.73;100657.00;20648619;28;20121;-71
2022/10/14 04:03:26;;;;;;;6.93;5.80;;;;;;;22.54;56.28;100651.50;20662452;28;20050;-71
2022/10/14 04:13:26;;;;;;;8.73;5.45;;;;;;;22.54;56.85;100651.50;20664384;28;20054;-71
2022/10/14 04:23:26;;;;;;;8.38;6.20;;;;;;;22.57;57.72;100637.22;20668235;28;20046;-76
2022/10/14 04:33:27;;;;;;;8.80;5.88;;;;;;;22.59;58.19;100635.28;20661137;28;20057;-73
2022/10/14 04:43:28;;;;;;;11.48;5.93;;;;;;;22.62;58.94;100637.69;20658700;28;20100;-73
2022/10/14 04:53:28;;;;;;;11.45;5.85;;;;;;;22.64;58.44;100637.56;20665511;28;20046;-72
2022/10/14 05:03:29;;;;;;;10.95;6.35;;;;;;;22.61;57.62;100651.84;20653572;28;20100;-73
2022/10/14 05:13:29;;;;;;;10.32;6.78;;;;;;;22.62;57.87;100642.09;20658552;28;20064;-73
2022/10/14 05:23:30;;;;;;;14.30;7.82;;;;;;;22.51;55.66;100649.09;20652158;28;20156;-73
2022/10/14 05:33:31;;;;;;;16.17;8.35;;;;;;;22.51;56.04;100653.53;20642923;28;20061;-73
2022/10/14 05:43:31;;;;;;;14.70;8.35;;;;;;;22.45;55.83;100657.50;20668559;28;20045;-73
2022/10/14 05:53:33;;;;;;;20.95;8.93;;;;;;;22.45;55.81;100661.91;20675600;28;20038;-74
2022/10/14 06:03:34;;;;;;;11.70;8.37;;;;;;;22.48;56.28;100670.44;20666642;28;20397;-75
2022/10/14 06:13:34;;;;;;;12.15;7.13;;;;;;;22.48;55.97;100680.16;20666758;28;20058;-75
2022/10/14 06:23:35;;;;;;;13.40;7.80;;;;;;;22.49;56.57;100685.31;20660897;28;20053;-75
2022/10/14 06:33:35;;;;;;;12.88;7.05;;;;;;;22.47;56.21;100681.97;20661543;28;20065;-74
2022/10/14 06:43:36;;;;;;;11.02;7.13;;;;;;;22.50;57.03;100691.44;20670114;28;20112;-75
2022/10/14 06:53:37;;;;;;;13.27;7.47;;;;;;;22.50;57.02;100692.28;20661728;28;20049;-73
2022/10/14 07:03:38;;;;;;;10.20;7.25;;;;;;;22.52;57.22;100698.28;20679715;28;20516;-75
2022/10/14 07:13:39;;;;;;;13.88;7.20;;;;;;;22.50;57.19;100697.56;20665011;28;20203;-75
2022/10/14 07:23:40;;;;;;;12.32;6.97;;;;;;;22.51;57.26;100695.75;20658872;28;20064;-75
2022/10/14 07:33:40;;;;;;;13.98;7.25;;;;;;;22.53;57.23;100689.41;20667619;28;22203;-76
2022/10/14 07:43:44;;;;;;;9.50;6.90;;;;;;;22.51;57.00;100688.69;20662529;28;20137;-74
2022/10/14 07:53:47;;;;;;;9.25;6.57;;;;;;;22.54;57.25;100691.09;20648527;28;20188;-75
2022/10/14 08:03:48;;;;;;;9.88;6.38;;;;;;;22.58;57.18;100682.91;20667991;28;20119;-74
2022/10/14 08:13:49;;;;;;;11.03;6.27;;;;;;;22.59;57.25;100668.75;20687643;28;20065;-74
2022/10/14 08:23:50;;;;;;;28.63;13.52;;;;;;;21.87;47.03;100671.56;20681675;28;20053;-75
2022/10/14 08:33:50;;;;;;;32.07;14.90;;;;;;;21.59;45.69;100670.16;20664722;28;20046;-75
2022/10/14 08:44:17;;;;;;;21.92;12.48;;;;;;;21.90;49.17;100652.03;20672882;28;20298;-76
2022/10/14 08:54:35;;;;;;;16.60;9.90;;;;;;;22.13;50.97;100655.53;20697916;28;20046;-74
2022/10/14 09:04:36;;;;;;;15.68;9.38;;;;;;;22.23;51.99;100651.22;20672076;28;20061;-74
2022/10/14 09:14:43;;;;;;;12.52;8.40;;;;;;;22.33;53.45;100648.69;20679404;28;20050;-72
2022/10/14 09:24:47;;;;;;;11.23;8.27;;;;;;;22.44;53.65;100652.34;20654544;28;20275;-74
2022/10/14 09:34:49;;;;;;;19.45;10.32;;;;;;;22.47;50.70;100652.09;20670845;28;20042;-73
2022/10/14 09:45:09;;;;;;;18.65;8.95;;;;;;;22.52;50.87;100652.56;20674229;28;20476;-74
2022/10/14 09:55:19;;;;;;;13.43;8.15;;;;;;;22.55;51.70;100653.16;20671337;28;20116;-74
2022/10/14 10:05:26;;;;;;;13.15;7.38;;;;;;;22.63;52.95;100647.28;20654470;28;20506;-75
2022/10/14 10:15:27;;;;;;;10.15;7.65;;;;;;;22.76;52.63;100651.59;20667526;28;24960;-76
2022/10/14 10:25:30;;;;;;;12.00;8.07;;;;;;;22.85;52.33;100627.91;20668640;28;20041;-71
2022/10/14 10:36:00;;;;;;;10.63;7.40;;;;;;;22.94;52.24;100620.22;20659073;28;20042;-76
2022/10/14 10:46:20;;;;;;;15.05;8.75;;;;;;;23.02;52.08;100607.22;20662668;28;20043;-76
2022/10/14 10:56:38;;;;;;;30.00;8.50;;;;;;;23.07;51.17;100596.28;20652905;28;20053;-77
2022/10/14 11:17:11;;;;;;;17.02;8.98;;;;;;;23.13;44.20;100574.63;20635655;28;20160;-75
2022/10/14 11:27:22;;;;;;;17.35;9.43;;;;;;;23.14;42.88;100571.88;20649079;28;20050;-75
2022/10/14 11:37:53;;;;;;;17.52;7.90;;;;;;;23.16;43.02;100564.69;20662119;28;20073;-77
2022/10/14 11:48:03;;;;;;;16.70;7.87;;;;;;;23.23;42.57;100545.69;20657325;28;20064;-76
2022/10/14 11:58:17;;;;;;;12.35;8.30;;;;;;;23.20;41.61;100543.31;20656673;28;20077;-75
2022/10/14 12:08:25;;;;;;;11.90;8.45;;;;;;;23.24;41.61;100536.78;20642490;28;20062;-76
2022/10/14 12:18:29;;;;;;;12.35;8.68;;;;;;;23.36;44.49;100535.75;20646041;28;20043;-73
2022/10/14 12:28:29;;;;;;;16.10;9.02;;;;;;;23.34;44.91;100527.97;20668978;28;20053;-73
2022/10/14 12:38:33;;;;;;;16.65;10.05;;;;;;;23.41;45.39;100512.44;20661034;28;20543;-75
2022/10/14 12:48:35;;;;;;;15.32;10.70;;;;;;;23.34;42.12;100512.13;20673338;28;20062;-74
2022/10/14 12:59:04;;;;;;;21.33;11.88;;;;;;;23.28;43.69;100502.06;20684605;28;20046;-75
2022/10/14 13:09:10;;;;;;;14.38;10.73;;;;;;;23.36;45.52;100500.59;20666433;28;20039;-75
2022/10/14 13:19:33;;;;;;;19.27;11.98;;;;;;;23.37;44.76;100495.16;20654005;28;20053;-75
2022/10/14 13:29:36;;;;;;;19.73;12.10;;;;;;;23.45;43.66;100492.69;20654645;28;20140;-74
2022/10/14 13:39:36;;;;;;;20.60;12.13;;;;;;;23.41;45.07;100485.16;20660271;28;20144;-73
2022/10/14 13:49:39;;;;;;;24.98;13.20;;;;;;;23.34;42.42;100482.22;20654877;28;20054;-76
2022/10/14 13:59:44;;;;;;;24.60;12.50;;;;;;;23.43;45.19;100476.13;20653285;28;20508;-75
2022/10/14 14:09:50;;;;;;;20.48;12.23;;;;;;;23.42;44.02;100455.97;20653485;28;20496;-75
2022/10/14 14:19:51;;;;;;;20.55;12.93;;;;;;;23.45;43.08;100462.81;20668342;28;20034;-73
2022/10/14 14:29:52;;;;;;;14.93;11.70;;;;;;;23.43;43.12;100457.63;20664438;28;20121;-76
2022/10/14 14:39:58;;;;;;;16.87;12.43;;;;;;;23.41;43.99;100453.47;20680553;28;20042;-76
2022/10/14 14:50:00;;;;;;;21.25;12.80;;;;;;;23.34;42.79;100461.91;20664379;28;20525;-73
2022/10/14 15:00:03;;;;;;;22.63;13.50;;;;;;;23.22;42.70;100457.69;20663081;28;20044;-73
2022/10/14 15:10:07;;;;;;;19.27;13.60;;;;;;;23.18;42.47;100448.34;20657586;28;20042;-74
2022/10/14 15:20:13;;;;;;;17.98;13.00;;;;;;;23.09;43.08;100451.72;20646293;28;20068;-74
2022/10/14 15:30:35;;;;;;;22.33;13.82;;;;;;;23.03;43.47;100445.16;20644313;28;20038;-73
2022/10/14 15:40:35;;;;;;;21.52;13.70;;;;;;;22.92;43.77;100447.88;20642810;28;20127;-74
2022/10/14 15:50:38;;;;;;;29.02;13.82;;;;;;;22.88;44.69;100457.84;20618623;28;20042;-74
2022/10/14 16:00:38;;;;;;;23.98;14.20;;;;;;;22.34;44.94;100464.91;20641327;28;20108;-75
2022/10/14 16:10:42;;;;;;;19.10;12.25;;;;;;;22.67;46.23;100471.03;20634192;28;20163;-72
2022/10/14 16:20:44;;;;;;;18.15;12.40;;;;;;;22.76;47.48;100480.81;20647315;28;20061;-72
2022/10/14 16:30:48;;;;;;;21.17;11.90;;;;;;;22.90;48.11;100492.03;20659643;28;20042;-74
2022/10/14 16:40:56;;;;;;;25.40;13.82;;;;;;;23.02;50.70;100505.06;20654726;28;20756;-74
2022/10/14 16:50:56;;;;;;;28.27;17.65;;;;;;;23.16;51.62;100506.56;20660482;28;20137;-75
2022/10/14 17:00:58;;;;;;;35.33;23.85;;;;;;;23.24;51.98;100505.94;20667940;28;20546;-75
2022/10/14 17:10:59;;;;;;;;;;;;;;;23.31;52.40;100501.81;20655367;28;20038;-79
2022/10/14 17:21:09;;;;;;;45.83;29.88;;;;;;;23.33;53.03;100493.75;20661069;28;19944;-76
2022/10/14 17:31:13;;;;;;;37.90;27.77;;;;;;;23.38;52.44;100503.94;20662660;28;20041;-76
2022/10/14 17:41:14;;;;;;;36.60;26.13;;;;;;;23.37;52.88;100497.78;20658399;28;20051;-76
2022/10/14 17:51:14;;;;;;;37.25;25.02;;;;;;;23.37;52.70;100503.09;20655787;28;20433;-75
2022/10/14 18:01:15;;;;;;;32.28;23.95;;;;;;;23.39;52.67;100508.22;20645987;28;20089;-76
2022/10/14 18:11:16;;;;;;;31.35;23.05;;;;;;;23.41;52.61;100503.66;20655100;28;20049;-74
2022/10/14 18:21:17;;;;;;;30.63;21.97;;;;;;;23.42;52.61;100502.69;20653034;28;20038;-77
2022/10/14 18:31:20;;;;;;;27.17;20.10;;;;;;;23.46;52.55;100512.03;20650545;28;20041;-77
2022/10/14 18:41:25;;;;;;;29.02;20.63;;;;;;;23.46;52.68;100501.47;20652421;28;20096;-76
2022/10/14 18:51:28;;;;;;;27.25;19.40;;;;;;;23.46;52.96;100510.25;20664130;28;20048;-74
2022/10/14 19:01:29;;;;;;;26.23;19.02;;;;;;;23.47;52.70;100511.91;20651313;28;20045;-74
2022/10/14 19:11:32;;;;;;;27.07;18.47;;;;;;;23.50;52.75;100524.84;20656832;28;20046;-73
2022/10/14 19:21:33;;;;;;;25.88;17.83;;;;;;;23.52;52.84;100523.88;20645533;28;20382;-74
2022/10/14 19:31:34;;;;;;;30.73;17.17;;;;;;;23.43;51.97;100530.81;20635219;28;20041;-77
2022/10/14 19:41:41;;;;;;;24.00;16.20;;;;;;;23.42;52.19;100537.06;20652966;28;20084;-74
2022/10/14 19:51:42;;;;;;;35.83;15.90;;;;;;;23.33;52.42;100536.03;20660592;28;20039;-73
2022/10/14 20:01:42;;;;;;;23.15;15.45;;;;;;;23.30;53.04;100542.41;20670804;28;20089;-74
2022/10/14 20:11:43;;;;;;;25.65;15.85;;;;;;;23.27;53.16;100545.28;20657294;28;20116;-74
2022/10/14 20:21:43;;;;;;;21.15;14.43;;;;;;;23.25;53.46;100547.22;20653869;28;20050;-72
2022/10/14 20:31:44;;;;;;;22.02;15.63;;;;;;;23.21;53.64;100532.59;20650760;28;20049;-74
2022/10/14 20:41:44;;;;;;;18.52;14.32;;;;;;;23.18;53.63;100538.16;20649308;28;20382;-74
2022/10/14 20:51:45;;;;;;;17.98;14.30;;;;;;;23.14;53.44;100529.63;20651279;28;20440;-75
2022/10/14 21:01:45;;;;;;;19.85;13.93;;;;;;;23.13;53.73;100535.88;20649420;28;20042;-75
2022/10/14 21:11:46;;;;;;;18.23;13.30;;;;;;;23.11;53.83;100529.88;20640759;28;20054;-75
2022/10/14 21:21:49;;;;;;;17.38;13.43;;;;;;;23.08;53.98;100535.41;20637274;28;20057;-74
2022/10/14 21:31:49;;;;;;;21.05;13.63;;;;;;;23.05;54.01;100538.31;20639896;28;20042;-74
2022/10/14 21:41:51;;;;;;;15.83;12.63;;;;;;;23.05;53.67;100529.56;20638172;28;20520;-74
2022/10/14 21:51:51;;;;;;;16.75;13.18;;;;;;;23.01;53.89;100518.41;20645732;28;20042;-74
2022/10/14 22:01:55;;;;;;;15.65;12.45;;;;;;;22.97;53.87;100516.97;20639820;28;20047;-74
2022/10/14 22:11:56;;;;;;;16.25;12.48;;;;;;;22.95;53.68;100508.31;20626826;28;20073;-74
2022/10/14 22:21:58;;;;;;;16.40;11.77;;;;;;;22.95;53.88;100508.31;20634600;28;20049;-74
2022/10/14 22:31:58;;;;;;;15.03;11.80;;;;;;;22.92;53.96;100498.88;20627064;28;20137;-74
2022/10/14 22:41:58;;;;;;;15.32;11.68;;;;;;;22.89;53.82;100511.47;20632562;28;20938;-74
2022/10/14 22:51:59;;;;;;;15.43;11.48;;;;;;;22.86;53.87;100515.22;20629555;28;20616;-74
2022/10/14 23:01:59;;;;;;;16.17;11.63;;;;;;;22.82;53.67;100504.06;20633418;28;20046;-74
2022/10/14 23:12:00;;;;;;;15.30;10.90;;;;;;;22.81;53.76;100509.47;20626389;28;20394;-74
2022/10/14 23:22:00;;;;;;;13.10;10.50;;;;;;;22.81;53.96;100510.34;20628094;28;20046;-74
2022/10/14 23:32:01;;;;;;;14.07;10.80;;;;;;;22.80;54.00;100513.09;20643051;28;20042;-75
2022/10/14 23:42:02;;;;;;;13.30;10.70;;;;;;;22.75;53.74;100515.28;20640670;28;20054;-74
2022/10/14 23:52:02;;;;;;;13.05;10.45;;;;;;;22.77;54.10;100516.00;20643497;28;20048;-74
